This is the latest recevied weather packets stored in our database for station/object K8BCO. If no packets are shown the sender has not sent any weather packets the latest 10 day(s).
| Time | Temp. | Humidity | Pressure | Rain* | Wind** | Luminosity | Snow |
|---|---|---|---|---|---|---|---|
| 1777869317 | 6.11° C | 65% | 1000.1 hPa | 0 mm | - | 0 W/m² | - |
| 1777868717 | 6.11° C | 62% | 1000.3 hPa | 0 mm | - | 0 W/m² | - |
| 1777868117 | 6.67° C | 61% | 1000.5 hPa | 0 mm | - | 0 W/m² | - |
| 1777867518 | 7.22° C | 59% | 1000.5 hPa | 0 mm | - | 0 W/m² | - |
| 1777866917 | 7.78° C | 56% | 1000.6 hPa | 0 mm | - | 0 W/m² | - |
| 1777866318 | 8.33° C | 52% | 1000.6 hPa | 0 mm | - | 0 W/m² | - |
| 1777865718 | 8.33° C | 53% | 1000.6 hPa | 0 mm | - | 0 W/m² | - |
| 1777865119 | 8.33° C | 52% | 1000.6 hPa | 0 mm | - | 0 W/m² | - |
| 1777864518 | 7.78° C | 54% | 1000.7 hPa | 0 mm | - | 0 W/m² | - |
| 1777863916 | 7.22° C | 57% | 1000.9 hPa | 0 mm | - | 0 W/m² | - |
| 1777863321 | 7.22° C | 58% | 1000.9 hPa | 0 mm | - | 0 W/m² | - |
| 1777862720 | 7.22° C | 57% | 1001 hPa | 0 mm | - | 0 W/m² | - |
| 1777862120 | 7.22° C | 52% | 1001 hPa | 0 mm | - | 0 W/m² | - |
| 1777861516 | 7.78° C | 52% | 1001.2 hPa | 0 mm | - | 0 W/m² | - |
| 1777860916 | 7.78° C | 50% | 1001.2 hPa | 0 mm | - | 0 W/m² | - |
| 1777860316 | 7.78° C | 49% | 1001.4 hPa | 0 mm | - | 0 W/m² | - |
| 1777859716 | 8.33° C | 49% | 1001.4 hPa | 0 mm | - | 0 W/m² | - |
| 1777859116 | 9.44° C | 46% | 1001.4 hPa | 0 mm | - | 0 W/m² | - |
| 1777858517 | 10° C | 44% | 1001.4 hPa | 0 mm | - | 0 W/m² | - |
| 1777857920 | 10.56° C | 42% | 1001.4 hPa | 0 mm | - | 0 W/m² | - |
| 1777857317 | 11.67° C | 41% | 1001.4 hPa | 0 mm | - | 1 W/m² | - |
| 1777856717 | 12.78° C | 38% | 1001.5 hPa | 0 mm | - | 4 W/m² | - |
| 1777856117 | 13.33° C | 35% | 1001.5 hPa | 0 mm | - | 8 W/m² | - |
| 1777855519 | 13.89° C | 33% | 1001.5 hPa | 0 mm | - | 14 W/m² | - |
| 1777854919 | 13.89° C | 32% | 1001.4 hPa | 0 mm | - | 22 W/m² | - |
* Rain latest hour (hover to see other rain measurements)
** Current wind speed in m/s (hover to see current wind gust speed)